sensor_id;sensor_type;location;lat;lon;timestamp;pressure;altitude;pressure_sealevel;temperature;humidity
69622;BME280;56841;55.964;37.674;2022-12-10T00:01:21;99460.28;;;-1.75;83.49
69622;BME280;56841;55.964;37.674;2022-12-10T00:03:47;99456.22;;;-1.64;82.37
69622;BME280;56841;55.964;37.674;2022-12-10T00:06:17;99459.44;;;-1.61;82.42
69622;BME280;56841;55.964;37.674;2022-12-10T00:08:43;99468.16;;;-1.62;82.66
69622;BME280;56841;55.964;37.674;2022-12-10T00:11:10;99468.25;;;-1.49;82.15
69622;BME280;56841;55.964;37.674;2022-12-10T00:13:37;99473.50;;;-1.36;81.34
69622;BME280;56841;55.964;37.674;2022-12-10T00:16:05;99480.00;;;-1.44;81.49
69622;BME280;56841;55.964;37.674;2022-12-10T00:18:32;99467.03;;;-1.44;81.91
69622;BME280;56841;55.964;37.674;2022-12-10T00:20:57;99464.59;;;-1.32;81.71
69622;BME280;56841;55.964;37.674;2022-12-10T00:23:23;99475.03;;;-1.20;80.64
69622;BME280;56841;55.964;37.674;2022-12-10T00:25:49;99470.38;;;-1.56;81.51
69622;BME280;56841;55.964;37.674;2022-12-10T00:28:15;99469.00;;;-1.76;83.24
69622;BME280;56841;55.964;37.674;2022-12-10T00:30:40;99464.81;;;-1.78;83.91
69622;BME280;56841;55.964;37.674;2022-12-10T00:33:06;99462.06;;;-1.89;84.66
69622;BME280;56841;55.964;37.674;2022-12-10T00:35:35;99454.00;;;-1.85;85.42
69622;BME280;56841;55.964;37.674;2022-12-10T00:38:02;99460.00;;;-1.56;84.15
69622;BME280;56841;55.964;37.674;2022-12-10T00:40:28;99462.63;;;-1.70;83.93
69622;BME280;56841;55.964;37.674;2022-12-10T00:42:53;99450.97;;;-1.63;84.23
69622;BME280;56841;55.964;37.674;2022-12-10T00:45:19;99450.81;;;-1.47;83.24
69622;BME280;56841;55.964;37.674;2022-12-10T00:47:45;99444.69;;;-1.32;82.40
69622;BME280;56841;55.964;37.674;2022-12-10T00:50:10;99437.91;;;-1.20;81.50
69622;BME280;56841;55.964;37.674;2022-12-10T00:52:36;99437.19;;;-1.22;81.30
69622;BME280;56841;55.964;37.674;2022-12-10T00:55:02;99435.31;;;-1.20;81.25
69622;BME280;56841;55.964;37.674;2022-12-10T00:57:28;99424.31;;;-1.24;81.08
69622;BME280;56841;55.964;37.674;2022-12-10T00:59:54;99436.63;;;-1.27;81.36
69622;BME280;56841;55.964;37.674;2022-12-10T01:02:20;99438.06;;;-1.09;80.71
69622;BME280;56841;55.964;37.674;2022-12-10T01:04:46;99434.47;;;-0.93;79.71
69622;BME280;56841;55.964;37.674;2022-12-10T01:07:11;99440.16;;;-1.01;79.86
69622;BME280;56841;55.964;37.674;2022-12-10T01:09:38;99448.19;;;-0.91;79.59
69622;BME280;56841;55.964;37.674;2022-12-10T01:12:04;99444.34;;;-0.86;78.88
69622;BME280;56841;55.964;37.674;2022-12-10T01:14:32;99431.88;;;-0.93;78.94
69622;BME280;56841;55.964;37.674;2022-12-10T01:17:00;99430.09;;;-1.06;79.43
69622;BME280;56841;55.964;37.674;2022-12-10T01:19:29;99431.38;;;-0.99;80.04
69622;BME280;56841;55.964;37.674;2022-12-10T01:21:55;99434.84;;;-0.85;79.13
69622;BME280;56841;55.964;37.674;2022-12-10T01:24:22;99434.78;;;-0.98;80.04
69622;BME280;56841;55.964;37.674;2022-12-10T01:26:48;99426.84;;;-0.82;79.74
69622;BME280;56841;55.964;37.674;2022-12-10T01:29:14;99415.03;;;-1.13;80.50
69622;BME280;56841;55.964;37.674;2022-12-10T01:31:40;99416.91;;;-1.42;82.00
69622;BME280;56841;55.964;37.674;2022-12-10T01:34:10;99419.09;;;-1.36;82.07
69622;BME280;56841;55.964;37.674;2022-12-10T01:36:41;99423.50;;;-1.24;82.15
69622;BME280;56841;55.964;37.674;2022-12-10T01:39:13;99416.66;;;-1.25;81.60
69622;BME280;56841;55.964;37.674;2022-12-10T01:41:51;99410.53;;;-1.24;81.53
69622;BME280;56841;55.964;37.674;2022-12-10T01:46:45;99428.41;;;-1.20;81.85
69622;BME280;56841;55.964;37.674;2022-12-10T01:49:21;99443.69;;;-1.02;81.86
69622;BME280;56841;55.964;37.674;2022-12-10T01:51:52;99433.22;;;-1.01;80.36
69622;BME280;56841;55.964;37.674;2022-12-10T01:54:28;99433.09;;;-1.12;81.53
69622;BME280;56841;55.964;37.674;2022-12-10T01:57:27;99432.63;;;-1.18;81.80
69622;BME280;56841;55.964;37.674;2022-12-10T01:59:55;99425.19;;;-1.37;83.24
69622;BME280;56841;55.964;37.674;2022-12-10T02:02:49;99434.97;;;-1.28;83.26
69622;BME280;56841;55.964;37.674;2022-12-10T02:05:32;99450.66;;;-1.17;82.46
69622;BME280;56841;55.964;37.674;2022-12-10T02:08:15;99437.28;;;-1.24;82.89
69622;BME280;56841;55.964;37.674;2022-12-10T02:13:40;99427.25;;;-1.42;84.21
69622;BME280;56841;55.964;37.674;2022-12-10T02:16:26;99430.56;;;-1.40;84.68
69622;BME280;56841;55.964;37.674;2022-12-10T02:19:00;99421.25;;;-1.57;85.33
69622;BME280;56841;55.964;37.674;2022-12-10T02:21:37;99413.28;;;-1.54;85.56
69622;BME280;56841;55.964;37.674;2022-12-10T02:24:08;99433.78;;;-1.37;85.40
69622;BME280;56841;55.964;37.674;2022-12-10T02:26:43;99418.28;;;-1.51;85.94
69622;BME280;56841;55.964;37.674;2022-12-10T02:29:22;99427.06;;;-1.39;85.58
69622;BME280;56841;55.964;37.674;2022-12-10T02:31:55;99430.97;;;-1.47;85.42
69622;BME280;56841;55.964;37.674;2022-12-10T02:34:23;99430.81;;;-1.31;84.68
69622;BME280;56841;55.964;37.674;2022-12-10T02:36:53;99416.97;;;-1.44;84.59
69622;BME280;56841;55.964;37.674;2022-12-10T02:39:25;99403.34;;;-1.60;86.19
69622;BME280;56841;55.964;37.674;2022-12-10T02:41:56;99414.50;;;-1.46;85.34
69622;BME280;56841;55.964;37.674;2022-12-10T02:44:24;99409.31;;;-1.46;85.51
69622;BME280;56841;55.964;37.674;2022-12-10T02:46:53;99401.34;;;-1.42;85.32
69622;BME280;56841;55.964;37.674;2022-12-10T02:49:23;99394.97;;;-1.51;85.18
69622;BME280;56841;55.964;37.674;2022-12-10T02:51:52;99402.31;;;-1.31;84.57
69622;BME280;56841;55.964;37.674;2022-12-10T02:54:39;99394.34;;;-1.28;83.93
69622;BME280;56841;55.964;37.674;2022-12-10T02:57:33;99395.59;;;-1.33;83.99
69622;BME280;56841;55.964;37.674;2022-12-10T03:02:46;99383.75;;;-1.37;84.59
69622;BME280;56841;55.964;37.674;2022-12-10T03:05:33;99387.41;;;-1.27;84.04
69622;BME280;56841;55.964;37.674;2022-12-10T03:12:57;99382.03;;;-1.24;84.10
69622;BME280;56841;55.964;37.674;2022-12-10T03:15:25;99386.28;;;-1.23;83.50
69622;BME280;56841;55.964;37.674;2022-12-10T03:17:53;99381.25;;;-1.12;82.88
69622;BME280;56841;55.964;37.674;2022-12-10T03:20:21;99376.59;;;-1.07;82.42
69622;BME280;56841;55.964;37.674;2022-12-10T03:22:48;99384.88;;;-1.14;82.16
69622;BME280;56841;55.964;37.674;2022-12-10T03:25:16;99381.66;;;-1.18;82.49
69622;BME280;56841;55.964;37.674;2022-12-10T03:27:43;99377.66;;;-1.09;82.35
69622;BME280;56841;55.964;37.674;2022-12-10T03:30:11;99384.91;;;-1.02;81.54
69622;BME280;56841;55.964;37.674;2022-12-10T03:32:37;99391.34;;;-0.94;81.21
69622;BME280;56841;55.964;37.674;2022-12-10T03:35:04;99381.44;;;-0.88;80.86
69622;BME280;56841;55.964;37.674;2022-12-10T03:37:31;99382.00;;;-0.97;80.46
69622;BME280;56841;55.964;37.674;2022-12-10T03:39:58;99386.97;;;-1.07;81.24
69622;BME280;56841;55.964;37.674;2022-12-10T03:42:23;99386.69;;;-0.89;80.59
69622;BME280;56841;55.964;37.674;2022-12-10T03:44:50;99382.22;;;-1.00;80.50
69622;BME280;56841;55.964;37.674;2022-12-10T03:47:18;99387.13;;;-0.96;80.65
69622;BME280;56841;55.964;37.674;2022-12-10T03:49:44;99388.03;;;-0.97;80.56
69622;BME280;56841;55.964;37.674;2022-12-10T03:52:10;99393.22;;;-0.97;80.81
69622;BME280;56841;55.964;37.674;2022-12-10T03:54:36;99389.28;;;-0.89;80.64
69622;BME280;56841;55.964;37.674;2022-12-10T03:57:02;99386.22;;;-0.82;79.77
69622;BME280;56841;55.964;37.674;2022-12-10T03:59:27;99386.28;;;-0.83;79.94
69622;BME280;56841;55.964;37.674;2022-12-10T04:01:53;99385.28;;;-0.81;79.78
69622;BME280;56841;55.964;37.674;2022-12-10T04:04:20;99386.41;;;-0.72;79.06
69622;BME280;56841;55.964;37.674;2022-12-10T04:06:46;99387.66;;;-0.78;79.31
69622;BME280;56841;55.964;37.674;2022-12-10T04:09:12;99385.38;;;-0.69;78.86
69622;BME280;56841;55.964;37.674;2022-12-10T04:11:38;99384.97;;;-0.89;79.34
69622;BME280;56841;55.964;37.674;2022-12-10T04:14:04;99386.75;;;-1.04;80.54
69622;BME280;56841;55.964;37.674;2022-12-10T04:16:48;99390.34;;;-0.79;80.10
69622;BME280;56841;55.964;37.674;2022-12-10T04:19:15;99390.53;;;-0.82;79.60
69622;BME280;56841;55.964;37.674;2022-12-10T04:21:43;99382.88;;;-0.84;79.58
69622;BME280;56841;55.964;37.674;2022-12-10T04:24:30;99395.41;;;-0.90;79.71
69622;BME280;56841;55.964;37.674;2022-12-10T04:27:27;99395.41;;;-0.90;79.84
69622;BME280;56841;55.964;37.674;2022-12-10T04:29:55;99390.22;;;-0.90;79.83
69622;BME280;56841;55.964;37.674;2022-12-10T04:32:21;99391.00;;;-1.03;80.47
69622;BME280;56841;55.964;37.674;2022-12-10T04:34:48;99396.44;;;-1.20;80.89
69622;BME280;56841;55.964;37.674;2022-12-10T04:37:14;99394.75;;;-1.34;82.28
69622;BME280;56841;55.964;37.674;2022-12-10T04:39:40;99391.53;;;-1.37;82.51
69622;BME280;56841;55.964;37.674;2022-12-10T04:42:06;99403.69;;;-1.25;82.63
69622;BME280;56841;55.964;37.674;2022-12-10T04:44:32;99406.38;;;-1.00;81.22
69622;BME280;56841;55.964;37.674;2022-12-10T04:46:58;99403.66;;;-1.11;81.29
69622;BME280;56841;55.964;37.674;2022-12-10T04:49:24;99401.22;;;-0.87;80.80
69622;BME280;56841;55.964;37.674;2022-12-10T04:51:50;99406.66;;;-0.64;79.48
69622;BME280;56841;55.964;37.674;2022-12-10T04:54:16;99402.53;;;-0.54;78.61
69622;BME280;56841;55.964;37.674;2022-12-10T04:56:42;99402.81;;;-0.72;79.22
69622;BME280;56841;55.964;37.674;2022-12-10T04:59:08;99404.44;;;-0.83;79.77
69622;BME280;56841;55.964;37.674;2022-12-10T05:01:34;99399.38;;;-0.85;80.20
69622;BME280;56841;55.964;37.674;2022-12-10T05:04:05;99406.31;;;-0.73;79.77
69622;BME280;56841;55.964;37.674;2022-12-10T05:06:32;99407.19;;;-0.59;79.03
69622;BME280;56841;55.964;37.674;2022-12-10T05:08:58;99405.09;;;-0.67;79.42
69622;BME280;56841;55.964;37.674;2022-12-10T05:11:25;99388.22;;;-1.00;80.24
69622;BME280;56841;55.964;37.674;2022-12-10T05:13:53;99381.25;;;-1.12;81.30
69622;BME280;56841;55.964;37.674;2022-12-10T05:16:20;99384.56;;;-1.23;81.48
69622;BME280;56841;55.964;37.674;2022-12-10T05:18:46;99400.72;;;-1.19;81.66
69622;BME280;56841;55.964;37.674;2022-12-10T05:21:14;99393.00;;;-0.93;80.61
69622;BME280;56841;55.964;37.674;2022-12-10T05:23:43;99394.22;;;-1.12;81.09
69622;BME280;56841;55.964;37.674;2022-12-10T05:28:45;99395.16;;;-1.00;80.71
69622;BME280;56841;55.964;37.674;2022-12-10T05:31:17;99386.97;;;-1.07;80.98
69622;BME280;56841;55.964;37.674;2022-12-10T05:33:43;99380.31;;;-1.11;81.56
69622;BME280;56841;55.964;37.674;2022-12-10T05:36:11;99388.22;;;-1.00;81.12
69622;BME280;56841;55.964;37.674;2022-12-10T05:38:39;99383.47;;;-1.06;81.39
69622;BME280;56841;55.964;37.674;2022-12-10T05:41:07;99384.13;;;-1.16;81.39
69622;BME280;56841;55.964;37.674;2022-12-10T05:43:33;99377.09;;;-1.14;81.94
69622;BME280;56841;55.964;37.674;2022-12-10T05:46:01;99385.81;;;-1.03;81.29
69622;BME280;56841;55.964;37.674;2022-12-10T05:48:27;99387.34;;;-1.13;81.93
69622;BME280;56841;55.964;37.674;2022-12-10T05:50:52;99387.47;;;-1.14;82.24
69622;BME280;56841;55.964;37.674;2022-12-10T05:53:18;99397.09;;;-1.16;81.43
69622;BME280;56841;55.964;37.674;2022-12-10T05:55:44;99400.47;;;-1.02;81.51
69622;BME280;56841;55.964;37.674;2022-12-10T05:58:10;99398.91;;;-1.04;81.36
69622;BME280;56841;55.964;37.674;2022-12-10T06:00:39;99396.75;;;-0.98;81.02
69622;BME280;56841;55.964;37.674;2022-12-10T06:03:05;99397.81;;;-1.14;81.33
69622;BME280;56841;55.964;37.674;2022-12-10T06:05:38;99401.63;;;-1.20;82.07
69622;BME280;56841;55.964;37.674;2022-12-10T06:08:04;99393.66;;;-1.17;82.18
69622;BME280;56841;55.964;37.674;2022-12-10T06:10:29;99389.19;;;-1.28;82.70
69622;BME280;56841;55.964;37.674;2022-12-10T06:12:55;99388.59;;;-1.18;82.42
69622;BME280;56841;55.964;37.674;2022-12-10T06:15:20;99388.28;;;-1.14;82.05
69622;BME280;56841;55.964;37.674;2022-12-10T06:17:46;99378.22;;;-1.18;82.24
69622;BME280;56841;55.964;37.674;2022-12-10T06:20:12;99380.00;;;-1.06;81.98
69622;BME280;56841;55.964;37.674;2022-12-10T06:22:37;99384.75;;;-1.13;82.20
69622;BME280;56841;55.964;37.674;2022-12-10T06:25:03;99370.06;;;-1.00;81.84
69622;BME280;56841;55.964;37.674;2022-12-10T06:27:31;99383.00;;;-0.85;81.31
69622;BME280;56841;55.964;37.674;2022-12-10T06:29:57;99385.16;;;-0.92;81.07
69622;BME280;56841;55.964;37.674;2022-12-10T06:32:23;99390.03;;;-0.87;81.10
69622;BME280;56841;55.964;37.674;2022-12-10T06:34:49;99397.59;;;-0.84;80.94
69622;BME280;56841;55.964;37.674;2022-12-10T06:37:15;99388.50;;;-0.77;80.88
69622;BME280;56841;55.964;37.674;2022-12-10T06:39:43;99392.81;;;-0.90;81.15
69622;BME280;56841;55.964;37.674;2022-12-10T06:42:09;99385.78;;;-0.88;81.53
69622;BME280;56841;55.964;37.674;2022-12-10T06:44:34;99384.09;;;-0.89;81.42
69622;BME280;56841;55.964;37.674;2022-12-10T06:47:00;99377.50;;;-0.81;81.32
69622;BME280;56841;55.964;37.674;2022-12-10T06:49:25;99374.38;;;-0.73;80.75
69622;BME280;56841;55.964;37.674;2022-12-10T06:51:51;99375.56;;;-0.64;79.90
69622;BME280;56841;55.964;37.674;2022-12-10T06:54:17;99377.81;;;-0.73;80.47
69622;BME280;56841;55.964;37.674;2022-12-10T06:56:44;99370.34;;;-0.77;80.98
69622;BME280;56841;55.964;37.674;2022-12-10T06:59:12;99370.84;;;-0.85;81.41
69622;BME280;56841;55.964;37.674;2022-12-10T07:01:38;99377.06;;;-0.87;82.06
69622;BME280;56841;55.964;37.674;2022-12-10T07:04:05;99378.53;;;-0.70;81.48
69622;BME280;56841;55.964;37.674;2022-12-10T07:06:31;99377.50;;;-0.81;81.32
69622;BME280;56841;55.964;37.674;2022-12-10T07:08:57;99382.28;;;-0.75;81.24
69622;BME280;56841;55.964;37.674;2022-12-10T07:11:23;99379.47;;;-0.72;81.24
69622;BME280;56841;55.964;37.674;2022-12-10T07:13:50;99380.59;;;-0.88;82.07
69622;BME280;56841;55.964;37.674;2022-12-10T07:16:24;99374.91;;;-0.81;82.00
69622;BME280;56841;55.964;37.674;2022-12-10T07:18:53;99370.94;;;-0.99;82.85
69622;BME280;56841;55.964;37.674;2022-12-10T07:21:21;99373.41;;;-0.98;82.99
69622;BME280;56841;55.964;37.674;2022-12-10T07:23:48;99385.59;;;-0.85;82.07
69622;BME280;56841;55.964;37.674;2022-12-10T07:26:14;99383.91;;;-0.86;82.67
69622;BME280;56841;55.964;37.674;2022-12-10T07:28:40;99383.00;;;-0.73;81.93
69622;BME280;56841;55.964;37.674;2022-12-10T07:31:08;99382.47;;;-0.78;81.60
69622;BME280;56841;55.964;37.674;2022-12-10T07:33:34;99384.75;;;-0.73;81.64
69622;BME280;56841;55.964;37.674;2022-12-10T07:36:06;99385.16;;;-0.92;82.75
69622;BME280;56841;55.964;37.674;2022-12-10T07:38:33;99387.53;;;-0.89;82.56
69622;BME280;56841;55.964;37.674;2022-12-10T07:41:05;99389.09;;;-0.86;82.75
69622;BME280;56841;55.964;37.674;2022-12-10T07:43:36;99390.38;;;-0.66;82.10
69622;BME280;56841;55.964;37.674;2022-12-10T07:46:04;99392.56;;;-0.60;81.76
69622;BME280;56841;55.964;37.674;2022-12-10T07:48:30;99377.81;;;-0.60;81.52
69622;BME280;56841;55.964;37.674;2022-12-10T07:50:57;99378.53;;;-0.45;80.92
69622;BME280;56841;55.964;37.674;2022-12-10T07:53:23;99387.88;;;-0.68;81.47
69622;BME280;56841;55.964;37.674;2022-12-10T07:55:50;99391.72;;;-0.74;81.77
69622;BME280;56841;55.964;37.674;2022-12-10T07:58:15;99386.53;;;-0.74;82.46
69622;BME280;56841;55.964;37.674;2022-12-10T08:00:41;99385.88;;;-0.90;82.90
69622;BME280;56841;55.964;37.674;2022-12-10T08:03:08;99384.31;;;-0.80;82.64
69622;BME280;56841;55.964;37.674;2022-12-10T08:05:34;99378.84;;;-0.75;82.49
69622;BME280;56841;55.964;37.674;2022-12-10T08:07:59;99377.88;;;-0.87;82.98
69622;BME280;56841;55.964;37.674;2022-12-10T08:10:25;99378.13;;;-0.77;82.83
69622;BME280;56841;55.964;37.674;2022-12-10T08:12:51;99379.56;;;-0.73;82.79
69622;BME280;56841;55.964;37.674;2022-12-10T08:15:16;99374.91;;;-0.81;83.27
69622;BME280;56841;55.964;37.674;2022-12-10T08:17:42;99368.88;;;-0.68;82.75
69622;BME280;56841;55.964;37.674;2022-12-10T08:20:08;99366.72;;;-0.62;83.04
69622;BME280;56841;55.964;37.674;2022-12-10T08:22:34;99369.72;;;-0.55;82.16
69622;BME280;56841;55.964;37.674;2022-12-10T08:25:01;99362.16;;;-0.58;82.68
69622;BME280;56841;55.964;37.674;2022-12-10T08:27:28;99357.28;;;-0.50;82.52
69622;BME280;56841;55.964;37.674;2022-12-10T08:29:54;99362.66;;;-0.28;81.15
69622;BME280;56841;55.964;37.674;2022-12-10T08:32:19;99352.50;;;-0.18;80.39
69622;BME280;56841;55.964;37.674;2022-12-10T08:34:45;99360.31;;;-0.31;80.65
69622;BME280;56841;55.964;37.674;2022-12-10T08:37:11;99360.41;;;-0.32;81.23
69622;BME280;56841;55.964;37.674;2022-12-10T08:39:36;99357.38;;;-0.39;81.75
69622;BME280;56841;55.964;37.674;2022-12-10T08:42:02;99347.53;;;-0.46;82.24
69622;BME280;56841;55.964;37.674;2022-12-10T08:44:28;99349.53;;;-0.37;81.95
69622;BME280;56841;55.964;37.674;2022-12-10T08:46:54;99351.47;;;-0.28;81.52
69622;BME280;56841;55.964;37.674;2022-12-10T08:49:19;99349.28;;;-0.34;82.02
69622;BME280;56841;55.964;37.674;2022-12-10T08:51:45;99350.63;;;-0.16;81.82
69622;BME280;56841;55.964;37.674;2022-12-10T08:54:12;99346.16;;;-0.14;81.51
69622;BME280;56841;55.964;37.674;2022-12-10T08:56:37;99346.19;;;-0.27;82.10
69622;BME280;56841;55.964;37.674;2022-12-10T08:59:05;99341.50;;;-0.21;82.31
69622;BME280;56841;55.964;37.674;2022-12-10T09:01:32;99344.41;;;-0.13;81.96
69622;BME280;56841;55.964;37.674;2022-12-10T09:03:58;99347.91;;;-0.14;82.09
69622;BME280;56841;55.964;37.674;2022-12-10T09:06:24;99341.69;;;-0.12;81.94
69622;BME280;56841;55.964;37.674;2022-12-10T09:08:51;99340.66;;;-0.09;82.18
69622;BME280;56841;55.964;37.674;2022-12-10T09:11:21;99351.72;;;0.06;81.79
69622;BME280;56841;55.964;37.674;2022-12-10T09:13:48;99347.97;;;0.10;81.45
69622;BME280;56841;55.964;37.674;2022-12-10T09:16:14;99359.09;;;0.12;81.09
69622;BME280;56841;55.964;37.674;2022-12-10T09:18:40;99352.53;;;0.19;80.42
69622;BME280;56841;55.964;37.674;2022-12-10T09:21:08;99352.31;;;0.22;80.63
69622;BME280;56841;55.964;37.674;2022-12-10T09:23:35;99351.13;;;0.39;79.65
69622;BME280;56841;55.964;37.674;2022-12-10T09:26:04;99353.38;;;0.43;79.45
69622;BME280;56841;55.964;37.674;2022-12-10T09:28:31;99351.34;;;0.36;79.67
69622;BME280;56841;55.964;37.674;2022-12-10T09:30:58;99348.22;;;0.31;79.90
69622;BME280;56841;55.964;37.674;2022-12-10T09:33:26;99355.56;;;0.37;79.93
69622;BME280;56841;55.964;37.674;2022-12-10T09:35:52;99343.19;;;0.40;79.35
69622;BME280;56841;55.964;37.674;2022-12-10T09:38:18;99338.53;;;0.45;79.21
69622;BME280;56841;55.964;37.674;2022-12-10T09:40:54;99331.03;;;0.41;79.62
69622;BME280;56841;55.964;37.674;2022-12-10T09:43:47;99333.16;;;0.36;80.05
69622;BME280;56841;55.964;37.674;2022-12-10T09:46:41;99324.38;;;0.13;81.07
69622;BME280;56841;55.964;37.674;2022-12-10T09:49:23;99327.81;;;0.13;81.36
69622;BME280;56841;55.964;37.674;2022-12-10T09:51:59;99327.94;;;0.12;81.31
69622;BME280;56841;55.964;37.674;2022-12-10T09:54:30;99332.84;;;0.04;81.73
69622;BME280;56841;55.964;37.674;2022-12-10T09:56:57;99329.59;;;0.13;81.80
69622;BME280;56841;55.964;37.674;2022-12-10T10:04:35;99322.41;;;0.16;82.43
69622;BME280;56841;55.964;37.674;2022-12-10T10:07:01;99330.97;;;0.06;82.20
69622;BME280;56841;55.964;37.674;2022-12-10T10:09:30;99327.88;;;0.01;82.98
69622;BME280;56841;55.964;37.674;2022-12-10T10:11:57;99324.53;;;-0.02;83.13
69622;BME280;56841;55.964;37.674;2022-12-10T10:14:26;99331.38;;;-0.01;83.45
69622;BME280;56841;55.964;37.674;2022-12-10T10:17:04;99333.06;;;-0.12;83.86
69622;BME280;56841;55.964;37.674;2022-12-10T10:19:34;99321.13;;;-0.15;84.29
69622;BME280;56841;55.964;37.674;2022-12-10T10:22:04;99317.31;;;-0.22;85.08
69622;BME280;56841;55.964;37.674;2022-12-10T10:24:42;99319.38;;;-0.14;84.20
69622;BME280;56841;55.964;37.674;2022-12-10T10:27:12;99309.78;;;-0.01;84.00
69622;BME280;56841;55.964;37.674;2022-12-10T10:29:39;99313.78;;;0.16;82.68
69622;BME280;56841;55.964;37.674;2022-12-10T10:32:15;99311.63;;;0.10;82.55
69622;BME280;56841;55.964;37.674;2022-12-10T10:34:42;99303.03;;;-0.04;82.93
69622;BME280;56841;55.964;37.674;2022-12-10T10:37:19;99306.28;;;0.00;83.34
69622;BME280;56841;55.964;37.674;2022-12-10T10:39:48;99312.44;;;0.10;82.80
69622;BME280;56841;55.964;37.674;2022-12-10T10:42:35;99309.47;;;0.04;82.29
69622;BME280;56841;55.964;37.674;2022-12-10T10:45:04;99304.94;;;-0.06;82.67
69622;BME280;56841;55.964;37.674;2022-12-10T10:47:33;99303.69;;;0.00;83.07
69622;BME280;56841;55.964;37.674;2022-12-10T10:50:01;99292.31;;;0.14;82.41
69622;BME280;56841;55.964;37.674;2022-12-10T10:52:32;99295.16;;;-0.02;83.34
69622;BME280;56841;55.964;37.674;2022-12-10T10:55:00;99290.38;;;0.05;82.96
69622;BME280;56841;55.964;37.674;2022-12-10T10:57:33;99276.00;;;0.12;81.72
69622;BME280;56841;55.964;37.674;2022-12-10T11:00:06;99286.38;;;-0.12;83.01
69622;BME280;56841;55.964;37.674;2022-12-10T11:02:37;99279.63;;;-0.15;84.29
69622;BME280;56841;55.964;37.674;2022-12-10T11:05:20;99280.41;;;-0.02;84.10
69622;BME280;56841;55.964;37.674;2022-12-10T11:08:12;99280.25;;;0.13;82.57
69622;BME280;56841;55.964;37.674;2022-12-10T11:10:50;99279.84;;;0.06;82.50
69622;BME280;56841;55.964;37.674;2022-12-10T11:13:24;99274.63;;;0.19;82.52
69622;BME280;56841;55.964;37.674;2022-12-10T11:18:40;99260.59;;;-0.03;83.36
69622;BME280;56841;55.964;37.674;2022-12-10T11:23:44;99259.56;;;0.00;83.45
69622;BME280;56841;55.964;37.674;2022-12-10T11:26:25;99259.56;;;0.00;83.29
69622;BME280;56841;55.964;37.674;2022-12-10T11:37:21;99239.13;;;-0.17;84.42
69622;BME280;56841;55.964;37.674;2022-12-10T11:43:12;99237.28;;;-0.15;85.08
69622;BME280;56841;55.964;37.674;2022-12-10T11:50:52;99233.91;;;-0.05;84.12
69622;BME280;56841;55.964;37.674;2022-12-10T11:56:28;99220.09;;;-0.05;84.18
69622;BME280;56841;55.964;37.674;2022-12-10T11:58:57;99224.25;;;-0.03;83.89
69622;BME280;56841;55.964;37.674;2022-12-10T12:07:33;99222.91;;;-0.08;84.34
69622;BME280;56841;55.964;37.674;2022-12-10T12:15:23;99229.13;;;-0.35;85.59
69622;BME280;56841;55.964;37.674;2022-12-10T12:17:57;99227.06;;;-0.42;86.27
69622;BME280;56841;55.964;37.674;2022-12-10T12:20:32;99227.22;;;-0.20;86.20
69622;BME280;56841;55.964;37.674;2022-12-10T12:23:26;99231.66;;;-0.09;84.87
69622;BME280;56841;55.964;37.674;2022-12-10T12:26:02;99224.69;;;-0.09;84.70
69622;BME280;56841;55.964;37.674;2022-12-10T12:28:31;99215.97;;;-0.08;85.21
69622;BME280;56841;55.964;37.674;2022-12-10T12:31:07;99223.25;;;-0.13;85.72
69622;BME280;56841;55.964;37.674;2022-12-10T12:33:42;99219.22;;;-0.17;85.65
69622;BME280;56841;55.964;37.674;2022-12-10T12:36:20;99220.09;;;-0.05;85.38
69622;BME280;56841;55.964;37.674;2022-12-10T12:41:32;99218.25;;;-0.03;85.25
69622;BME280;56841;55.964;37.674;2022-12-10T12:44:21;99217.28;;;-0.02;85.13
69622;BME280;56841;55.964;37.674;2022-12-10T12:46:48;99208.69;;;-0.03;85.34
69622;BME280;56841;55.964;37.674;2022-12-10T12:49:43;99203.88;;;0.04;84.62
69622;BME280;56841;55.964;37.674;2022-12-10T12:52:40;99206.31;;;-0.06;85.21
69622;BME280;56841;55.964;37.674;2022-12-10T12:55:43;99215.34;;;-0.11;86.08
69622;BME280;56841;55.964;37.674;2022-12-10T12:58:25;99213.16;;;-0.05;85.75
69622;BME280;56841;55.964;37.674;2022-12-10T13:00:58;99211.59;;;-0.07;85.42
69622;BME280;56841;55.964;37.674;2022-12-10T13:06:26;99201.13;;;-0.06;85.48
69622;BME280;56841;55.964;37.674;2022-12-10T13:11:35;99199.72;;;-0.22;87.37
69622;BME280;56841;55.964;37.674;2022-12-10T13:22:11;99207.78;;;-0.14;87.12
69622;BME280;56841;55.964;37.674;2022-12-10T13:32:42;99207.13;;;-0.29;87.69
69622;BME280;56841;55.964;37.674;2022-12-10T13:49:23;99192.75;;;-0.22;87.35
69622;BME280;56841;55.964;37.674;2022-12-10T13:52:03;99194.72;;;-0.13;86.74
69622;BME280;56841;55.964;37.674;2022-12-10T13:54:55;99197.78;;;-0.32;87.26
69622;BME280;56841;55.964;37.674;2022-12-10T14:00:35;99192.13;;;-0.13;86.50
69622;BME280;56841;55.964;37.674;2022-12-10T14:06:18;99186.81;;;-0.11;86.09
69622;BME280;56841;55.964;37.674;2022-12-10T14:09:05;99181.44;;;-0.21;86.38
69622;BME280;56841;55.964;37.674;2022-12-10T14:11:38;99190.34;;;-0.12;86.31
69622;BME280;56841;55.964;37.674;2022-12-10T14:14:08;99181.56;;;-0.22;87.31
69622;BME280;56841;55.964;37.674;2022-12-10T14:16:37;99181.72;;;-0.13;87.07
69622;BME280;56841;55.964;37.674;2022-12-10T14:19:08;99178.41;;;-0.15;87.04
69622;BME280;56841;55.964;37.674;2022-12-10T14:21:42;99170.06;;;-0.07;86.46
69622;BME280;56841;55.964;37.674;2022-12-10T14:24:36;99170.56;;;-0.26;87.65
69622;BME280;56841;55.964;37.674;2022-12-10T14:27:18;99168.06;;;-0.28;88.35
69622;BME280;56841;55.964;37.674;2022-12-10T14:29:47;99166.34;;;-0.27;87.94
69622;BME280;56841;55.964;37.674;2022-12-10T14:32:16;99164.38;;;-0.36;88.72
69622;BME280;56841;55.964;37.674;2022-12-10T14:34:51;99156.97;;;-0.54;89.20
69622;BME280;56841;55.964;37.674;2022-12-10T14:37:19;99154.44;;;-0.42;89.78
69622;BME280;56841;55.964;37.674;2022-12-10T14:39:47;99158.63;;;-0.53;90.34
69622;BME280;56841;55.964;37.674;2022-12-10T14:42:15;99153.22;;;-0.50;91.21
69622;BME280;56841;55.964;37.674;2022-12-10T14:44:42;99147.69;;;-0.45;90.44
69622;BME280;56841;55.964;37.674;2022-12-10T14:47:18;99154.28;;;-0.28;89.42